Main page
METAR-TAF:

METAR-TAF

Airports :

Brussels Airport. Zaventem

Brussels, Belgium

latitude: 50-54N, longitude: 004-32E, elevation: 55 m

Current weather observation

The report was made 30 minutes ago, at 12:50 UTC
Wind 11 kt from the Northeast, varying between North and East/Southeast
Temperature 21°C
Humidity 28%
Pressure 1032 hPa
Visibility 10 km or more
no clouds below 1500 m and no cumulonimbus

METAR: EBBR 281250Z 05011KT 010V110 CAVOK 21/02 Q1032 NOSIG

Time: 15:20 (13:20 UTC)

Forecast

The report was made 2 hours and 10 minutes ago, at 11:10 UTC
Forecast valid from 28 at 12 UTC to 29 at 18 UTC
Wind 11 kt from the Northeast
Visibility 10 km or more
no clouds below 1500 m and no cumulonimbus

TAF: EBBR 281110Z 2812/2918 05011KT CAVOK

Weather observations and forecasts of more than 4000 airports (METAR and TAF reports).

The available stations are represented by yellow and red dots on the map.

Hover mouse over dot to see the name of the station.

Then click to see weather observations and forecasts.

To change the map : click on the green buttons with a black cross to zoom in, on the green button with a dash to zoom out, or on the green arrows for adjacent maps.


METAR-TAF: